KGAG/GAG METAR and TAF weather

Enter ICAO airport designator
Station Type Date Time Source
KGAG METAR 2019/12/14 16:53 UTC NOAA

KGAG 141653Z AUTO 07009KT 10SM OVC100 04/M02 A2991 RMK AO2 SLP134 T00441017


Station Type Date Time Source
KGAG Decoded METAR 2019/12/14 16:53 UTC NOAA

GAGE AIRPORT, OK, United States (KGAG) 36-18N 99-46W 668M
Dec 14, 2019 - 11:53 AM EST / 2019.12.14 1653 UTC
Wind: from the ENE (070 degrees) at 10 MPH (9 KT):0
Visibility: 10 mile(s):0
Sky conditions: overcast
Temperature: 39.9 F (4.4 C)
Dew Point: 28.9 F (-1.7 C)
Relative Humidity: 64%
Pressure (altimeter): 29.91 in. Hg (1012 hPa)
ob: KGAG 141653Z AUTO 07009KT 10SM OVC100 04/M02 A2991 RMK AO2 SLP134 T00441017
cycle: 17

Station Type Date Time Source
KGAG TAF 2018/03/21 06:22 UTC NOAA

TAF KGAG 210520Z 2106/2206 VRB04KT P6SM SCT250
FM211300 16008KT P6SM SCT250
FM211800 18012G22KT P6SM BKN250

Example: see airport list